createdAt,value
2022-12-03T00:00:41.982Z,25.90
2022-12-03T00:03:08.959Z,25.77
2022-12-03T00:05:36.591Z,24.17
2022-12-03T00:08:04.471Z,24.90
2022-12-03T00:10:31.397Z,28.95
2022-12-03T00:12:58.360Z,29.67
2022-12-03T00:15:25.186Z,25.67
2022-12-03T00:17:52.041Z,32.25
2022-12-03T00:20:22.037Z,27.25
2022-12-03T00:22:49.361Z,29.67
2022-12-03T00:25:16.858Z,29.27
2022-12-03T00:27:43.780Z,35.55
2022-12-03T00:30:11.525Z,28.63
2022-12-03T00:32:38.858Z,30.50
2022-12-03T00:35:06.210Z,32.05
2022-12-03T00:37:35.146Z,34.83
2022-12-03T00:40:03.876Z,26.25
2022-12-03T00:42:30.736Z,25.02
2022-12-03T00:44:57.620Z,30.25
2022-12-03T00:47:24.538Z,33.97
2022-12-03T00:49:52.238Z,29.25
2022-12-03T00:52:19.389Z,30.75
2022-12-03T00:54:46.309Z,38.85
2022-12-03T00:57:13.191Z,34.22
2022-12-03T00:59:41.143Z,35.45
2022-12-03T01:02:08.295Z,33.80
2022-12-03T01:04:35.737Z,37.65
2022-12-03T01:07:02.639Z,35.03
2022-12-03T01:09:29.623Z,36.22
2022-12-03T01:11:56.468Z,34.38
2022-12-03T01:14:23.407Z,38.55
2022-12-03T01:16:50.308Z,37.15
2022-12-03T01:19:18.084Z,38.78
2022-12-03T01:21:47.608Z,34.58
2022-12-03T01:24:14.790Z,35.47
2022-12-03T01:26:41.915Z,34.70
2022-12-03T01:29:08.813Z,34.80
2022-12-03T01:31:54.213Z,36.45
2022-12-03T01:34:21.132Z,32.92
2022-12-03T01:36:48.038Z,33.50
2022-12-03T01:39:15.380Z,37.25
2022-12-03T01:41:42.649Z,36.70
2022-12-03T01:44:21.671Z,37.28
2022-12-03T01:46:50.885Z,35.70
2022-12-03T01:49:23.435Z,33.80
2022-12-03T01:51:52.495Z,33.35
2022-12-03T01:54:41.031Z,34.97
2022-12-03T01:57:18.341Z,33.17
2022-12-03T01:59:45.762Z,32.35
2022-12-03T02:02:26.170Z,32.35
2022-12-03T02:04:53.678Z,33.25
2022-12-03T02:07:26.964Z,31.60
2022-12-03T02:09:56.539Z,38.90
2022-12-03T02:12:48.389Z,36.30
2022-12-03T02:15:15.407Z,35.58
2022-12-03T02:17:42.799Z,40.10
2022-12-03T02:20:11.624Z,38.40
2022-12-03T02:22:54.028Z,33.50
2022-12-03T02:25:28.691Z,35.33
2022-12-03T02:27:56.057Z,36.63
2022-12-03T02:30:25.687Z,33.92
2022-12-03T02:32:54.080Z,36.20
2022-12-03T02:35:23.944Z,37.78
2022-12-03T02:38:00.239Z,35.88
2022-12-03T02:40:32.025Z,33.90
2022-12-03T02:43:02.337Z,36.17
2022-12-03T02:48:02.191Z,32.92
2022-12-03T02:50:32.832Z,39.17
2022-12-03T02:53:02.839Z,33.10
2022-12-03T02:55:36.483Z,34.08
2022-12-03T02:58:05.379Z,30.98
2022-12-03T03:00:34.320Z,31.75
2022-12-03T03:03:02.652Z,32.65
2022-12-03T03:05:30.744Z,36.92
2022-12-03T03:07:58.700Z,34.75
2022-12-03T03:10:26.266Z,28.73
2022-12-03T03:12:55.290Z,30.35
2022-12-03T03:15:23.534Z,36.60
2022-12-03T03:17:50.835Z,37.67
2022-12-03T03:20:18.745Z,34.35
2022-12-03T03:22:46.343Z,36.25
2022-12-03T03:25:16.879Z,37.38
2022-12-03T03:27:44.534Z,39.17
2022-12-03T03:30:11.978Z,36.38
2022-12-03T03:32:40.320Z,34.95
2022-12-03T03:35:08.952Z,32.85
2022-12-03T03:37:36.294Z,32.47
2022-12-03T03:40:03.891Z,29.70
2022-12-03T03:42:30.793Z,24.38
2022-12-03T03:44:58.809Z,32.97
2022-12-03T03:47:25.970Z,30.48
2022-12-03T03:49:53.480Z,28.20
2022-12-03T03:52:21.189Z,28.00
2022-12-03T03:54:48.625Z,26.88
2022-12-03T03:57:15.902Z,24.75
2022-12-03T03:59:43.603Z,27.50
2022-12-03T04:02:21.375Z,27.55
2022-12-03T04:04:49.050Z,26.73
2022-12-03T04:07:16.472Z,24.83
2022-12-03T04:09:43.778Z,23.95
2022-12-03T04:12:31.817Z,20.27
2022-12-03T04:14:59.162Z,24.08
2022-12-03T04:17:26.410Z,23.05
2022-12-03T04:19:53.298Z,24.33
2022-12-03T04:22:38.678Z,21.73
2022-12-03T04:25:26.699Z,25.83
2022-12-03T04:28:12.962Z,17.17
2022-12-03T04:30:40.057Z,26.48
2022-12-03T04:33:25.628Z,22.98
2022-12-03T04:35:52.788Z,22.83
2022-12-03T04:38:20.096Z,21.23
2022-12-03T04:41:02.063Z,23.15
2022-12-03T04:43:29.579Z,24.15
2022-12-03T04:45:56.689Z,22.83
2022-12-03T04:48:23.999Z,24.17
2022-12-03T04:50:51.237Z,20.58
2022-12-03T04:53:18.689Z,23.58
2022-12-03T04:55:46.000Z,24.60
2022-12-03T04:58:12.851Z,19.35
2022-12-03T05:00:40.128Z,22.33
2022-12-03T05:03:07.098Z,27.30
2022-12-03T05:05:34.259Z,24.25
2022-12-03T05:08:01.255Z,23.77
2022-12-03T05:10:28.338Z,21.48
2022-12-03T05:12:55.838Z,28.30
2022-12-03T05:15:22.805Z,25.58
2022-12-03T05:17:49.651Z,22.98
2022-12-03T05:20:35.307Z,30.13
2022-12-03T05:23:02.158Z,25.42
2022-12-03T05:25:29.049Z,25.33
2022-12-03T05:27:55.916Z,25.20
2022-12-03T05:30:22.947Z,23.75
2022-12-03T05:32:50.107Z,21.60
2022-12-03T05:35:17.418Z,21.00
2022-12-03T05:37:44.719Z,23.20
2022-12-03T05:40:12.532Z,26.63
2022-12-03T05:42:55.195Z,23.42
2022-12-03T05:45:30.219Z,14.45
2022-12-03T05:47:58.091Z,18.83
2022-12-03T05:50:27.486Z,19.08
2022-12-03T05:55:23.476Z,17.25
2022-12-03T05:57:50.769Z,21.48
2022-12-03T06:00:24.502Z,22.23
2022-12-03T06:02:51.926Z,15.95
2022-12-03T06:05:19.668Z,17.58
2022-12-03T06:07:47.514Z,18.83
2022-12-03T06:10:17.882Z,18.60
2022-12-03T06:15:12.464Z,16.92
2022-12-03T06:17:39.758Z,16.58
2022-12-03T06:20:07.494Z,18.45
2022-12-03T06:22:34.798Z,17.95
2022-12-03T06:25:06.656Z,18.27
2022-12-03T06:27:34.874Z,13.68
2022-12-03T06:30:02.686Z,16.50
2022-12-03T06:32:30.034Z,15.27
2022-12-03T06:34:57.359Z,14.25
2022-12-03T06:37:24.686Z,15.07
2022-12-03T06:39:52.047Z,14.88
2022-12-03T06:42:19.394Z,15.85
2022-12-03T06:44:46.733Z,14.27
2022-12-03T06:47:14.094Z,14.40
2022-12-03T06:49:41.039Z,15.80
2022-12-03T06:52:08.489Z,13.70
2022-12-03T06:54:35.865Z,13.55
2022-12-03T06:57:03.283Z,11.80
2022-12-03T06:59:34.082Z,13.88
2022-12-03T07:02:01.600Z,13.25
2022-12-03T07:04:28.962Z,12.45
2022-12-03T07:06:56.306Z,12.60
2022-12-03T07:09:23.390Z,12.82
2022-12-03T07:11:50.708Z,12.70
2022-12-03T07:14:17.991Z,9.75
2022-12-03T07:16:45.631Z,7.25
2022-12-03T07:19:13.222Z,10.15
2022-12-03T07:21:40.758Z,12.15
2022-12-03T07:24:07.978Z,10.20
2022-12-03T07:26:35.465Z,10.65
2022-12-03T07:29:02.787Z,11.02
2022-12-03T07:31:30.212Z,11.32
2022-12-03T07:33:57.684Z,9.10
2022-12-03T07:36:25.123Z,11.50
2022-12-03T07:38:52.500Z,13.02
2022-12-03T07:41:19.856Z,10.93
2022-12-03T07:43:47.172Z,11.35
2022-12-03T07:46:15.323Z,11.27
2022-12-03T07:48:42.995Z,13.07
2022-12-03T07:51:14.185Z,8.57
2022-12-03T07:53:42.667Z,9.80
2022-12-03T07:56:10.204Z,9.38
2022-12-03T07:58:37.104Z,10.18
2022-12-03T08:01:04.478Z,10.40
2022-12-03T08:03:31.902Z,9.45
2022-12-03T08:05:59.422Z,8.45
2022-12-03T08:08:26.774Z,10.30
2022-12-03T08:10:53.673Z,10.30
2022-12-03T08:13:20.921Z,10.52
2022-12-03T08:15:48.290Z,8.88
2022-12-03T08:18:18.213Z,8.68
2022-12-03T08:20:48.379Z,10.00
2022-12-03T08:23:21.039Z,11.65
2022-12-03T08:25:48.782Z,11.05
2022-12-03T08:28:16.054Z,10.50
2022-12-03T08:30:44.571Z,12.32
2022-12-03T08:33:25.962Z,10.27
2022-12-03T08:35:53.292Z,10.43
2022-12-03T08:38:23.402Z,10.52
2022-12-03T08:40:52.304Z,11.13
2022-12-03T08:43:28.403Z,12.23
2022-12-03T08:45:57.048Z,12.05
2022-12-03T08:48:46.990Z,12.80
2022-12-03T08:51:22.614Z,17.52
2022-12-03T08:53:49.878Z,15.15
2022-12-03T08:56:25.327Z,20.55
2022-12-03T08:58:55.290Z,13.95
2022-12-03T09:01:38.820Z,16.60
2022-12-03T09:04:20.232Z,17.30
2022-12-03T09:06:47.818Z,17.38
2022-12-03T09:09:15.253Z,16.23
2022-12-03T09:11:43.355Z,17.13
2022-12-03T09:14:16.751Z,15.48
2022-12-03T09:16:45.875Z,17.65
2022-12-03T09:19:12.808Z,15.07
2022-12-03T09:21:40.136Z,19.90
2022-12-03T09:24:07.249Z,14.30
2022-12-03T09:26:34.158Z,18.65
2022-12-03T09:29:01.102Z,13.70
2022-12-03T09:31:28.551Z,19.40
2022-12-03T09:33:55.958Z,16.33
2022-12-03T09:36:23.205Z,17.83
2022-12-03T09:38:50.588Z,17.05
2022-12-03T09:41:17.951Z,17.80
2022-12-03T09:46:32.641Z,17.63
2022-12-03T09:49:01.237Z,18.80
2022-12-03T09:51:34.514Z,18.83
2022-12-03T09:54:04.674Z,18.20
2022-12-03T09:56:32.259Z,22.73
2022-12-03T09:58:59.579Z,22.00
2022-12-03T10:01:30.279Z,21.58
2022-12-03T10:03:58.765Z,22.42
2022-12-03T10:06:26.153Z,22.77
2022-12-03T10:08:56.761Z,21.52
2022-12-03T10:11:25.963Z,20.13
2022-12-03T10:13:56.397Z,19.55
2022-12-03T10:16:25.350Z,25.15
2022-12-03T10:18:59.553Z,26.00
2022-12-03T10:21:36.407Z,25.80
2022-12-03T10:24:21.981Z,24.73
2022-12-03T10:26:51.735Z,25.63
2022-12-03T10:29:28.373Z,28.25
2022-12-03T10:32:05.432Z,28.55
2022-12-03T10:34:40.727Z,26.75
2022-12-03T10:37:12.984Z,30.65
2022-12-03T10:39:56.185Z,29.45
2022-12-03T10:42:24.075Z,29.98
2022-12-03T10:45:12.472Z,30.25
2022-12-03T10:47:39.846Z,28.85
2022-12-03T10:50:16.363Z,31.65
2022-12-03T10:52:43.917Z,33.20
2022-12-03T10:55:13.477Z,34.97
2022-12-03T10:57:45.357Z,32.55
2022-12-03T11:00:18.583Z,34.25
2022-12-03T11:02:51.692Z,28.90
2022-12-03T11:05:26.892Z,28.60
2022-12-03T11:07:54.453Z,33.08
2022-12-03T11:10:21.725Z,36.25
2022-12-03T11:13:26.312Z,34.88
2022-12-03T11:15:53.795Z,34.97
2022-12-03T11:18:39.091Z,39.08
2022-12-03T11:21:14.044Z,36.42
2022-12-03T11:23:47.188Z,37.35
2022-12-03T11:26:39.107Z,33.90
2022-12-03T11:29:14.058Z,38.67
2022-12-03T11:31:48.410Z,38.85
2022-12-03T11:34:18.802Z,40.50
2022-12-03T11:39:53.391Z,33.45
2022-12-03T11:42:26.214Z,38.10
2022-12-03T11:45:05.769Z,38.60
2022-12-03T11:47:37.247Z,38.05
2022-12-03T11:50:27.991Z,41.90
2022-12-03T11:53:08.366Z,40.72
2022-12-03T11:58:15.869Z,38.78
2022-12-03T12:00:58.028Z,37.80
2022-12-03T12:03:28.886Z,36.05
2022-12-03T12:06:03.965Z,37.75
2022-12-03T12:08:31.612Z,40.17
2022-12-03T12:10:59.279Z,43.45
2022-12-03T12:13:26.723Z,35.25
2022-12-03T12:15:54.435Z,41.00
2022-12-03T12:18:41.176Z,42.50
2022-12-03T12:21:50.812Z,38.22
2022-12-03T12:24:30.887Z,38.00
2022-12-03T12:27:00.952Z,39.90
2022-12-03T12:29:28.468Z,40.13
2022-12-03T12:32:06.768Z,39.35
2022-12-03T12:34:34.275Z,39.72
2022-12-03T12:37:02.486Z,44.90
2022-12-03T12:39:29.990Z,40.40
2022-12-03T12:41:57.516Z,40.25
2022-12-03T12:44:26.471Z,44.75
2022-12-03T12:46:54.822Z,42.78
2022-12-03T12:49:26.881Z,49.08
2022-12-03T12:51:54.300Z,49.22
2022-12-03T12:54:21.474Z,47.50
2022-12-03T12:56:50.307Z,44.40
2022-12-03T12:59:22.053Z,42.17
2022-12-03T13:01:50.449Z,40.58
2022-12-03T13:04:19.866Z,42.83
2022-12-03T13:06:48.847Z,40.70
2022-12-03T13:09:24.780Z,49.83
2022-12-03T13:11:59.870Z,41.53
2022-12-03T13:14:31.739Z,42.30
2022-12-03T13:17:01.138Z,40.33
2022-12-03T13:19:30.942Z,42.37
2022-12-03T13:22:01.869Z,39.17
2022-12-03T13:24:43.003Z,47.13
2022-12-03T13:27:19.796Z,45.42
2022-12-03T13:29:50.752Z,42.55
2022-12-03T13:32:42.099Z,46.72
2022-12-03T13:35:24.485Z,53.92
2022-12-03T13:37:51.826Z,72.90
2022-12-03T13:40:30.714Z,56.42
2022-12-03T13:42:58.215Z,48.47
2022-12-03T13:45:38.506Z,43.85
2022-12-03T13:51:29.167Z,42.67
2022-12-03T13:53:56.872Z,41.80
2022-12-03T13:56:29.714Z,45.67
2022-12-03T13:59:00.211Z,41.47
2022-12-03T14:01:27.866Z,37.47
2022-12-03T14:03:55.346Z,41.53
2022-12-03T14:06:22.690Z,47.70
2022-12-03T14:08:50.061Z,44.30
2022-12-03T14:11:35.856Z,43.83
2022-12-03T14:14:03.386Z,41.25
2022-12-03T14:16:30.850Z,34.85
2022-12-03T14:18:57.804Z,32.75
2022-12-03T14:21:25.119Z,37.92
2022-12-03T14:23:52.472Z,37.20
2022-12-03T14:26:19.746Z,35.25
2022-12-03T14:28:47.075Z,42.10
2022-12-03T14:31:14.398Z,38.95
2022-12-03T14:33:41.299Z,36.35
2022-12-03T14:36:08.535Z,37.20
2022-12-03T14:38:35.495Z,39.88
2022-12-03T14:41:02.649Z,35.38
2022-12-03T14:43:30.040Z,33.03
2022-12-03T14:45:57.451Z,38.65
2022-12-03T14:48:25.042Z,40.22
2022-12-03T14:50:52.479Z,36.28
2022-12-03T14:53:24.088Z,35.72
2022-12-03T14:55:55.749Z,37.65
2022-12-03T14:58:23.092Z,35.38
2022-12-03T15:00:50.437Z,35.03
2022-12-03T15:03:17.800Z,39.20
2022-12-03T15:05:45.128Z,37.13
2022-12-03T15:08:12.535Z,38.90
2022-12-03T15:10:39.872Z,40.05
2022-12-03T15:13:07.198Z,39.88
2022-12-03T15:15:34.480Z,38.72
2022-12-03T15:18:01.398Z,37.65
2022-12-03T15:20:28.733Z,39.22
2022-12-03T15:22:56.121Z,37.90
2022-12-03T15:25:25.625Z,33.22
2022-12-03T15:27:52.622Z,35.58
2022-12-03T15:30:20.921Z,40.45
2022-12-03T15:32:48.305Z,36.58
2022-12-03T15:35:18.534Z,34.67
2022-12-03T15:40:13.590Z,36.47
2022-12-03T15:42:40.462Z,41.80
2022-12-03T15:45:13.511Z,33.42
2022-12-03T15:47:42.407Z,42.22
2022-12-03T15:50:09.905Z,40.28
2022-12-03T15:52:37.206Z,41.38
2022-12-03T15:55:04.625Z,38.95
2022-12-03T15:57:31.950Z,36.92
2022-12-03T15:59:59.356Z,40.80
2022-12-03T16:02:33.781Z,46.63
2022-12-03T16:05:02.339Z,40.00
2022-12-03T16:07:29.738Z,45.03
2022-12-03T16:09:57.470Z,40.65
2022-12-03T16:12:25.145Z,42.72
2022-12-03T16:14:52.607Z,39.83
2022-12-03T16:17:19.619Z,42.90
2022-12-03T16:19:47.026Z,41.80
2022-12-03T16:22:13.975Z,47.25
2022-12-03T16:24:41.141Z,40.75
2022-12-03T16:27:08.632Z,42.20
2022-12-03T16:29:36.295Z,37.08
2022-12-03T16:32:03.669Z,42.63
2022-12-03T16:34:31.110Z,44.25
2022-12-03T16:36:58.531Z,45.67
2022-12-03T16:39:25.906Z,48.42
2022-12-03T16:41:53.182Z,44.17
2022-12-03T16:44:31.484Z,43.58
2022-12-03T16:47:00.206Z,43.45
2022-12-03T16:49:27.590Z,48.42
2022-12-03T16:51:54.917Z,44.50
2022-12-03T16:54:22.362Z,48.72
2022-12-03T16:56:49.676Z,44.17
2022-12-03T16:59:17.020Z,52.50
2022-12-03T17:01:44.474Z,47.10
2022-12-03T17:04:11.842Z,47.17
2022-12-03T17:06:39.227Z,46.35
2022-12-03T17:09:06.674Z,47.42
2022-12-03T17:11:34.020Z,44.88
2022-12-03T17:14:01.357Z,46.90
2022-12-03T17:16:29.353Z,44.53
2022-12-03T17:18:56.671Z,51.90
2022-12-03T17:21:23.987Z,48.55
2022-12-03T17:23:51.606Z,51.50
2022-12-03T17:26:19.834Z,52.17
2022-12-03T17:28:47.096Z,49.90
2022-12-03T17:31:14.638Z,51.35
2022-12-03T17:33:42.137Z,55.90
2022-12-03T17:36:10.027Z,52.97
2022-12-03T17:38:39.304Z,42.42
2022-12-03T17:41:07.539Z,49.88
2022-12-03T17:43:35.059Z,50.88
2022-12-03T17:46:02.349Z,49.38
2022-12-03T17:48:31.310Z,50.03
2022-12-03T17:50:58.752Z,47.45
2022-12-03T17:53:28.174Z,53.03
2022-12-03T17:55:55.905Z,55.25
2022-12-03T17:58:23.387Z,56.67
2022-12-03T18:00:50.722Z,52.13
2022-12-03T18:03:18.217Z,53.88
2022-12-03T18:05:47.389Z,59.55
2022-12-03T18:08:14.987Z,52.97
2022-12-03T18:10:42.505Z,56.05
2022-12-03T18:13:09.851Z,47.85
2022-12-03T18:15:37.673Z,51.90
2022-12-03T18:18:05.603Z,56.90
2022-12-03T18:20:33.101Z,54.45
2022-12-03T18:23:00.813Z,59.92
2022-12-03T18:25:28.357Z,66.53
2022-12-03T18:27:55.741Z,92.30
2022-12-03T18:30:23.695Z,121.18
2022-12-03T18:32:51.212Z,65.88
2022-12-03T18:35:18.841Z,58.30
2022-12-03T18:37:46.253Z,55.55
2022-12-03T18:40:23.564Z,57.80
2022-12-03T18:42:51.026Z,61.67
2022-12-03T18:45:18.515Z,56.83
2022-12-03T18:47:46.023Z,56.72
2022-12-03T18:50:13.601Z,57.20
2022-12-03T18:52:41.389Z,56.30
2022-12-03T18:55:13.982Z,61.35
2022-12-03T18:57:41.358Z,64.00
2022-12-03T19:00:13.277Z,63.17
2022-12-03T19:05:32.149Z,60.53
2022-12-03T19:08:18.285Z,59.37
2022-12-03T19:10:47.301Z,57.55
2022-12-03T19:13:14.789Z,58.47
2022-12-03T19:15:46.479Z,64.53
2022-12-03T19:18:21.316Z,61.70
2022-12-03T19:20:59.252Z,57.22
2022-12-03T19:23:58.877Z,56.05
2022-12-03T19:26:31.886Z,50.50
2022-12-03T19:29:19.239Z,62.08
2022-12-03T19:31:57.333Z,52.17
2022-12-03T19:34:24.741Z,52.85
2022-12-03T19:36:52.471Z,54.28
2022-12-03T19:39:19.893Z,45.97
2022-12-03T19:41:47.599Z,55.25
2022-12-03T19:44:16.194Z,81.90
2022-12-03T19:46:43.887Z,104.13
2022-12-03T19:49:11.549Z,81.47
2022-12-03T19:51:38.945Z,66.75
2022-12-03T19:54:08.008Z,46.45
2022-12-03T19:56:35.649Z,48.55
2022-12-03T19:59:03.676Z,52.55
2022-12-03T20:01:33.501Z,43.58
2022-12-03T20:04:02.743Z,50.13
2022-12-03T20:06:32.959Z,42.05
2022-12-03T20:11:31.280Z,47.00
2022-12-03T20:14:00.764Z,47.33
2022-12-03T20:16:28.860Z,44.73
2022-12-03T20:18:58.245Z,46.80
2022-12-03T20:21:25.892Z,48.17
2022-12-03T20:23:53.499Z,44.10
2022-12-03T20:26:21.889Z,46.05
2022-12-03T20:28:49.581Z,44.55
2022-12-03T20:31:19.526Z,53.45
2022-12-03T20:33:49.749Z,52.83
2022-12-03T20:36:19.207Z,48.65
2022-12-03T20:38:46.889Z,46.60
2022-12-03T20:41:16.784Z,47.30
2022-12-03T20:43:44.706Z,43.13
2022-12-03T20:46:15.445Z,44.70
2022-12-03T20:48:43.708Z,51.17
2022-12-03T20:51:14.095Z,45.85
2022-12-03T20:53:42.114Z,43.38
2022-12-03T20:56:10.671Z,49.10
2022-12-03T20:58:38.438Z,46.05
2022-12-03T21:01:15.977Z,47.35
2022-12-03T21:03:44.868Z,46.40
2022-12-03T21:06:13.221Z,46.92
2022-12-03T21:08:42.595Z,51.58
2022-12-03T21:11:12.915Z,42.20
2022-12-03T21:13:44.305Z,46.90
2022-12-03T21:16:18.155Z,45.95
2022-12-03T21:18:45.728Z,49.58
2022-12-03T21:21:14.501Z,47.33
2022-12-03T21:23:42.365Z,44.35
2022-12-03T21:26:21.185Z,43.55
2022-12-03T21:28:51.471Z,51.22
2022-12-03T21:31:21.479Z,47.33
2022-12-03T21:33:48.896Z,47.83
2022-12-03T21:36:17.128Z,54.97
2022-12-03T21:38:45.256Z,43.58
2022-12-03T21:41:14.386Z,53.90
2022-12-03T21:43:42.374Z,46.90
2022-12-03T21:47:11.891Z,44.78
2022-12-03T21:49:00.389Z,40.80
2022-12-03T21:51:27.896Z,41.13
2022-12-03T21:53:55.305Z,42.70
2022-12-03T21:56:22.758Z,40.92
2022-12-03T21:58:50.088Z,39.90
2022-12-03T22:01:20.524Z,37.92
2022-12-03T22:03:48.115Z,34.72
2022-12-03T22:06:15.983Z,36.05
2022-12-03T22:08:43.227Z,36.25
2022-12-03T22:11:13.565Z,31.48
2022-12-03T22:16:12.416Z,31.33
2022-12-03T22:18:40.106Z,34.63
2022-12-03T22:21:12.415Z,31.73
2022-12-03T22:23:39.795Z,34.38
2022-12-03T22:26:12.814Z,33.80
2022-12-03T22:28:43.454Z,36.58
2022-12-03T22:31:11.228Z,33.70
2022-12-03T22:33:39.097Z,33.83
2022-12-03T22:36:14.653Z,29.60
2022-12-03T22:38:45.789Z,35.08
2022-12-03T22:41:13.686Z,34.58
2022-12-03T22:43:40.930Z,33.75
2022-12-03T22:46:11.002Z,30.23
2022-12-03T22:48:38.698Z,34.80
2022-12-03T22:51:14.619Z,34.10
2022-12-03T22:53:41.910Z,31.35
2022-12-03T22:56:09.568Z,30.75
2022-12-03T22:58:38.293Z,30.20
2022-12-03T23:01:05.700Z,32.88
2022-12-03T23:03:33.168Z,31.83
2022-12-03T23:06:00.499Z,30.75
2022-12-03T23:08:27.916Z,28.98
2022-12-03T23:10:55.268Z,29.63
2022-12-03T23:13:22.823Z,31.17
2022-12-03T23:15:52.072Z,31.48
2022-12-03T23:18:20.001Z,30.00
2022-12-03T23:20:50.118Z,30.27
2022-12-03T23:23:18.498Z,35.10
2022-12-03T23:25:46.116Z,34.28
2022-12-03T23:28:13.693Z,26.50
2022-12-03T23:30:41.249Z,31.40
2022-12-03T23:33:08.539Z,30.75
2022-12-03T23:35:35.880Z,26.75
2022-12-03T23:38:03.198Z,27.15
2022-12-03T23:40:30.537Z,30.38
2022-12-03T23:42:57.904Z,35.00
2022-12-03T23:45:25.228Z,32.10
2022-12-03T23:47:57.866Z,33.50
2022-12-03T23:50:26.004Z,30.55
2022-12-03T23:52:53.619Z,28.42
2022-12-03T23:55:20.971Z,27.20
2022-12-03T23:57:47.853Z,27.80
